sensor_id;sensor_type;location;lat;lon;timestamp;P1;durP1;ratioP1;P2;durP2;ratioP2
46689;SDS011;32423;45.398;10.874;2023-05-07T00:01:42;7.70;;;6.07;;
46689;SDS011;32423;45.398;10.874;2023-05-07T00:04:34;11.27;;;6.72;;
46689;SDS011;32423;45.398;10.874;2023-05-07T00:07:29;16.30;;;6.97;;
46689;SDS011;32423;45.398;10.874;2023-05-07T00:10:18;8.23;;;6.10;;
46689;SDS011;32423;45.398;10.874;2023-05-07T00:13:13;9.68;;;6.40;;
46689;SDS011;32423;45.398;10.874;2023-05-07T00:16:08;12.45;;;7.05;;
46689;SDS011;32423;45.398;10.874;2023-05-07T00:19:00;10.30;;;7.18;;
46689;SDS011;32423;45.398;10.874;2023-05-07T00:21:52;12.30;;;7.95;;
46689;SDS011;32423;45.398;10.874;2023-05-07T00:24:47;14.75;;;7.88;;
46689;SDS011;32423;45.398;10.874;2023-05-07T00:27:42;9.07;;;7.22;;
46689;SDS011;32423;45.398;10.874;2023-05-07T00:30:31;13.45;;;6.28;;
46689;SDS011;32423;45.398;10.874;2023-05-07T00:33:26;13.60;;;7.65;;
46689;SDS011;32423;45.398;10.874;2023-05-07T00:36:20;14.95;;;8.68;;
46689;SDS011;32423;45.398;10.874;2023-05-07T00:39:15;10.95;;;8.23;;
46689;SDS011;32423;45.398;10.874;2023-05-07T00:42:09;9.20;;;7.85;;
46689;SDS011;32423;45.398;10.874;2023-05-07T00:45:04;14.20;;;9.13;;
46689;SDS011;32423;45.398;10.874;2023-05-07T00:47:58;16.15;;;8.52;;
46689;SDS011;32423;45.398;10.874;2023-05-07T00:50:54;10.65;;;8.32;;
46689;SDS011;32423;45.398;10.874;2023-05-07T00:53:46;9.90;;;6.97;;
46689;SDS011;32423;45.398;10.874;2023-05-07T00:56:41;10.77;;;8.35;;
46689;SDS011;32423;45.398;10.874;2023-05-07T00:59:35;12.95;;;8.43;;
46689;SDS011;32423;45.398;10.874;2023-05-07T01:02:30;12.07;;;8.07;;
46689;SDS011;32423;45.398;10.874;2023-05-07T01:05:22;20.35;;;8.57;;
46689;SDS011;32423;45.398;10.874;2023-05-07T01:08:18;9.63;;;8.13;;
46689;SDS011;32423;45.398;10.874;2023-05-07T01:11:14;8.00;;;7.18;;
46689;SDS011;32423;45.398;10.874;2023-05-07T01:14:06;10.95;;;7.38;;
46689;SDS011;32423;45.398;10.874;2023-05-07T01:16:57;13.95;;;7.25;;
46689;SDS011;32423;45.398;10.874;2023-05-07T01:19:49;14.05;;;7.25;;
46689;SDS011;32423;45.398;10.874;2023-05-07T01:22:43;9.82;;;7.57;;
46689;SDS011;32423;45.398;10.874;2023-05-07T01:25:35;8.48;;;6.82;;
46689;SDS011;32423;45.398;10.874;2023-05-07T01:31:21;8.40;;;6.57;;
46689;SDS011;32423;45.398;10.874;2023-05-07T01:34:15;15.65;;;6.75;;
46689;SDS011;32423;45.398;10.874;2023-05-07T01:37:08;7.38;;;6.47;;
46689;SDS011;32423;45.398;10.874;2023-05-07T01:40:03;10.80;;;6.38;;
46689;SDS011;32423;45.398;10.874;2023-05-07T01:42:58;11.13;;;6.43;;
46689;SDS011;32423;45.398;10.874;2023-05-07T01:45:53;7.85;;;6.00;;
46689;SDS011;32423;45.398;10.874;2023-05-07T01:48:46;9.50;;;6.10;;
46689;SDS011;32423;45.398;10.874;2023-05-07T01:51:39;7.25;;;5.75;;
46689;SDS011;32423;45.398;10.874;2023-05-07T01:57:24;12.15;;;6.88;;
46689;SDS011;32423;45.398;10.874;2023-05-07T02:00:16;10.75;;;8.40;;
46689;SDS011;32423;45.398;10.874;2023-05-07T02:03:10;13.13;;;7.40;;
46689;SDS011;32423;45.398;10.874;2023-05-07T02:06:11;12.27;;;8.02;;
46689;SDS011;32423;45.398;10.874;2023-05-07T02:09:04;12.02;;;8.80;;
46689;SDS011;32423;45.398;10.874;2023-05-07T02:11:58;10.65;;;8.70;;
46689;SDS011;32423;45.398;10.874;2023-05-07T02:14:53;10.40;;;9.10;;
46689;SDS011;32423;45.398;10.874;2023-05-07T02:18:04;12.20;;;9.50;;
46689;SDS011;32423;45.398;10.874;2023-05-07T02:20:56;11.90;;;10.02;;
46689;SDS011;32423;45.398;10.874;2023-05-07T02:23:51;12.60;;;9.07;;
46689;SDS011;32423;45.398;10.874;2023-05-07T02:26:43;13.20;;;10.23;;
46689;SDS011;32423;45.398;10.874;2023-05-07T02:29:35;15.82;;;10.05;;
46689;SDS011;32423;45.398;10.874;2023-05-07T02:32:29;14.00;;;11.18;;
46689;SDS011;32423;45.398;10.874;2023-05-07T02:35:24;15.20;;;9.98;;
46689;SDS011;32423;45.398;10.874;2023-05-07T02:38:16;10.73;;;9.63;;
46689;SDS011;32423;45.398;10.874;2023-05-07T02:41:09;12.00;;;10.07;;
46689;SDS011;32423;45.398;10.874;2023-05-07T02:44:03;13.07;;;10.27;;
46689;SDS011;32423;45.398;10.874;2023-05-07T02:49:52;12.70;;;9.77;;
46689;SDS011;32423;45.398;10.874;2023-05-07T02:52:45;10.75;;;9.07;;
46689;SDS011;32423;45.398;10.874;2023-05-07T02:55:39;11.40;;;9.45;;
46689;SDS011;32423;45.398;10.874;2023-05-07T02:58:34;13.82;;;9.73;;
46689;SDS011;32423;45.398;10.874;2023-05-07T03:04:27;12.68;;;9.38;;
46689;SDS011;32423;45.398;10.874;2023-05-07T03:07:21;11.90;;;10.02;;
46689;SDS011;32423;45.398;10.874;2023-05-07T03:10:16;11.13;;;9.15;;
46689;SDS011;32423;45.398;10.874;2023-05-07T03:13:11;12.55;;;9.75;;
46689;SDS011;32423;45.398;10.874;2023-05-07T03:16:03;11.07;;;9.88;;
46689;SDS011;32423;45.398;10.874;2023-05-07T03:18:57;14.30;;;10.32;;
46689;SDS011;32423;45.398;10.874;2023-05-07T03:21:52;16.95;;;11.75;;
46689;SDS011;32423;45.398;10.874;2023-05-07T03:24:47;15.90;;;11.07;;
46689;SDS011;32423;45.398;10.874;2023-05-07T03:27:41;15.05;;;10.23;;
46689;SDS011;32423;45.398;10.874;2023-05-07T03:30:34;13.43;;;10.65;;
46689;SDS011;32423;45.398;10.874;2023-05-07T03:33:26;14.90;;;10.13;;
46689;SDS011;32423;45.398;10.874;2023-05-07T03:36:20;16.25;;;10.55;;
46689;SDS011;32423;45.398;10.874;2023-05-07T03:39:16;15.40;;;11.55;;
46689;SDS011;32423;45.398;10.874;2023-05-07T03:42:08;14.18;;;10.43;;
46689;SDS011;32423;45.398;10.874;2023-05-07T03:45:03;13.68;;;11.57;;
46689;SDS011;32423;45.398;10.874;2023-05-07T03:47:56;13.68;;;10.85;;
46689;SDS011;32423;45.398;10.874;2023-05-07T03:50:51;14.13;;;11.15;;
46689;SDS011;32423;45.398;10.874;2023-05-07T03:53:45;16.63;;;11.93;;
46689;SDS011;32423;45.398;10.874;2023-05-07T03:56:37;15.45;;;12.18;;
46689;SDS011;32423;45.398;10.874;2023-05-07T03:59:32;18.90;;;13.00;;
46689;SDS011;32423;45.398;10.874;2023-05-07T04:02:25;15.50;;;11.93;;
46689;SDS011;32423;45.398;10.874;2023-05-07T04:05:19;15.45;;;12.48;;
46689;SDS011;32423;45.398;10.874;2023-05-07T04:08:16;18.42;;;13.70;;
46689;SDS011;32423;45.398;10.874;2023-05-07T04:11:10;18.42;;;12.13;;
46689;SDS011;32423;45.398;10.874;2023-05-07T04:14:02;14.30;;;12.15;;
46689;SDS011;32423;45.398;10.874;2023-05-07T04:16:57;15.50;;;11.75;;
46689;SDS011;32423;45.398;10.874;2023-05-07T04:19:55;17.25;;;11.73;;
46689;SDS011;32423;45.398;10.874;2023-05-07T04:22:50;10.43;;;9.18;;
46689;SDS011;32423;45.398;10.874;2023-05-07T04:25:44;11.80;;;10.32;;
46689;SDS011;32423;45.398;10.874;2023-05-07T04:28:52;18.98;;;11.70;;
46689;SDS011;32423;45.398;10.874;2023-05-07T04:31:50;14.40;;;11.88;;
46689;SDS011;32423;45.398;10.874;2023-05-07T04:34:49;13.93;;;10.25;;
46689;SDS011;32423;45.398;10.874;2023-05-07T04:37:41;15.25;;;10.95;;
46689;SDS011;32423;45.398;10.874;2023-05-07T04:40:34;16.67;;;10.90;;
46689;SDS011;32423;45.398;10.874;2023-05-07T04:43:29;14.98;;;11.27;;
46689;SDS011;32423;45.398;10.874;2023-05-07T04:46:21;17.30;;;11.73;;
46689;SDS011;32423;45.398;10.874;2023-05-07T04:49:16;16.25;;;11.45;;
46689;SDS011;32423;45.398;10.874;2023-05-07T04:52:07;13.38;;;11.13;;
46689;SDS011;32423;45.398;10.874;2023-05-07T04:55:02;14.27;;;10.43;;
46689;SDS011;32423;45.398;10.874;2023-05-07T04:57:57;14.30;;;11.63;;
46689;SDS011;32423;45.398;10.874;2023-05-07T05:00:51;14.02;;;10.82;;
46689;SDS011;32423;45.398;10.874;2023-05-07T05:03:46;14.90;;;11.20;;
46689;SDS011;32423;45.398;10.874;2023-05-07T05:06:38;14.38;;;11.15;;
46689;SDS011;32423;45.398;10.874;2023-05-07T05:09:33;12.75;;;10.73;;
46689;SDS011;32423;45.398;10.874;2023-05-07T05:15:21;14.73;;;11.88;;
46689;SDS011;32423;45.398;10.874;2023-05-07T05:18:16;12.00;;;8.98;;
46689;SDS011;32423;45.398;10.874;2023-05-07T05:21:10;15.18;;;11.18;;
46689;SDS011;32423;45.398;10.874;2023-05-07T05:24:05;17.42;;;13.13;;
46689;SDS011;32423;45.398;10.874;2023-05-07T05:27:00;15.88;;;13.00;;
46689;SDS011;32423;45.398;10.874;2023-05-07T05:29:52;15.50;;;13.27;;
46689;SDS011;32423;45.398;10.874;2023-05-07T05:32:44;21.35;;;13.90;;
46689;SDS011;32423;45.398;10.874;2023-05-07T05:35:39;17.50;;;13.13;;
46689;SDS011;32423;45.398;10.874;2023-05-07T05:38:33;33.45;;;14.98;;
46689;SDS011;32423;45.398;10.874;2023-05-07T05:41:28;19.30;;;14.00;;
46689;SDS011;32423;45.398;10.874;2023-05-07T05:44:23;20.83;;;14.07;;
46689;SDS011;32423;45.398;10.874;2023-05-07T05:47:18;17.63;;;13.93;;
46689;SDS011;32423;45.398;10.874;2023-05-07T05:50:14;19.88;;;14.15;;
46689;SDS011;32423;45.398;10.874;2023-05-07T05:53:06;21.55;;;14.52;;
46689;SDS011;32423;45.398;10.874;2023-05-07T05:55:56;21.38;;;15.35;;
46689;SDS011;32423;45.398;10.874;2023-05-07T05:58:50;21.63;;;13.68;;
46689;SDS011;32423;45.398;10.874;2023-05-07T06:01:45;22.25;;;15.55;;
46689;SDS011;32423;45.398;10.874;2023-05-07T06:04:36;23.40;;;14.60;;
46689;SDS011;32423;45.398;10.874;2023-05-07T06:07:32;18.58;;;13.02;;
46689;SDS011;32423;45.398;10.874;2023-05-07T06:10:24;18.38;;;14.30;;
46689;SDS011;32423;45.398;10.874;2023-05-07T06:13:19;15.95;;;13.93;;
46689;SDS011;32423;45.398;10.874;2023-05-07T06:16:13;24.13;;;14.20;;
46689;SDS011;32423;45.398;10.874;2023-05-07T06:19:06;18.15;;;11.70;;
46689;SDS011;32423;45.398;10.874;2023-05-07T06:22:01;24.23;;;15.30;;
46689;SDS011;32423;45.398;10.874;2023-05-07T06:24:55;22.88;;;13.55;;
46689;SDS011;32423;45.398;10.874;2023-05-07T06:27:47;20.48;;;13.85;;
46689;SDS011;32423;45.398;10.874;2023-05-07T06:30:42;16.85;;;14.00;;
46689;SDS011;32423;45.398;10.874;2023-05-07T06:33:37;16.70;;;13.05;;
46689;SDS011;32423;45.398;10.874;2023-05-07T06:36:31;21.33;;;13.90;;
46689;SDS011;32423;45.398;10.874;2023-05-07T06:39:36;19.42;;;13.45;;
46689;SDS011;32423;45.398;10.874;2023-05-07T06:42:30;17.63;;;14.10;;
46689;SDS011;32423;45.398;10.874;2023-05-07T06:45:39;18.00;;;14.68;;
46689;SDS011;32423;45.398;10.874;2023-05-07T06:48:33;19.00;;;15.40;;
46689;SDS011;32423;45.398;10.874;2023-05-07T06:51:28;20.95;;;15.90;;
46689;SDS011;32423;45.398;10.874;2023-05-07T06:57:15;20.27;;;16.55;;
46689;SDS011;32423;45.398;10.874;2023-05-07T07:00:09;21.80;;;17.67;;
46689;SDS011;32423;45.398;10.874;2023-05-07T07:03:09;23.88;;;17.80;;
46689;SDS011;32423;45.398;10.874;2023-05-07T07:06:05;20.98;;;17.52;;
46689;SDS011;32423;45.398;10.874;2023-05-07T07:08:59;25.02;;;18.15;;
46689;SDS011;32423;45.398;10.874;2023-05-07T07:11:54;24.23;;;18.13;;
46689;SDS011;32423;45.398;10.874;2023-05-07T07:14:49;20.35;;;16.45;;
46689;SDS011;32423;45.398;10.874;2023-05-07T07:17:41;25.77;;;15.68;;
46689;SDS011;32423;45.398;10.874;2023-05-07T07:20:36;20.17;;;14.93;;
46689;SDS011;32423;45.398;10.874;2023-05-07T07:23:30;21.23;;;13.98;;
46689;SDS011;32423;45.398;10.874;2023-05-07T07:26:26;22.05;;;15.77;;
46689;SDS011;32423;45.398;10.874;2023-05-07T07:29:20;22.17;;;15.70;;
46689;SDS011;32423;45.398;10.874;2023-05-07T07:32:14;24.13;;;14.82;;
46689;SDS011;32423;45.398;10.874;2023-05-07T07:35:09;17.30;;;13.73;;
46689;SDS011;32423;45.398;10.874;2023-05-07T07:38:04;24.85;;;13.35;;
46689;SDS011;32423;45.398;10.874;2023-05-07T07:40:59;17.30;;;12.70;;
46689;SDS011;32423;45.398;10.874;2023-05-07T07:43:54;22.98;;;15.18;;
46689;SDS011;32423;45.398;10.874;2023-05-07T07:46:46;15.75;;;12.63;;
46689;SDS011;32423;45.398;10.874;2023-05-07T07:49:38;17.50;;;13.77;;
46689;SDS011;32423;45.398;10.874;2023-05-07T07:52:34;14.98;;;13.23;;
46689;SDS011;32423;45.398;10.874;2023-05-07T07:55:29;18.65;;;13.18;;
46689;SDS011;32423;45.398;10.874;2023-05-07T07:58:23;18.50;;;14.38;;
46689;SDS011;32423;45.398;10.874;2023-05-07T08:01:18;15.27;;;12.80;;
46689;SDS011;32423;45.398;10.874;2023-05-07T08:04:13;25.30;;;12.90;;
46689;SDS011;32423;45.398;10.874;2023-05-07T08:07:08;16.77;;;13.85;;
46689;SDS011;32423;45.398;10.874;2023-05-07T08:10:03;15.00;;;12.93;;
46689;SDS011;32423;45.398;10.874;2023-05-07T08:12:58;19.23;;;14.77;;
46689;SDS011;32423;45.398;10.874;2023-05-07T08:15:53;29.80;;;14.48;;
46689;SDS011;32423;45.398;10.874;2023-05-07T08:18:46;21.58;;;13.27;;
46689;SDS011;32423;45.398;10.874;2023-05-07T08:21:40;16.67;;;13.73;;
46689;SDS011;32423;45.398;10.874;2023-05-07T08:24:35;17.52;;;14.73;;
46689;SDS011;32423;45.398;10.874;2023-05-07T08:27:30;20.90;;;15.45;;
46689;SDS011;32423;45.398;10.874;2023-05-07T08:30:24;16.85;;;14.27;;
46689;SDS011;32423;45.398;10.874;2023-05-07T08:33:19;18.85;;;14.45;;
46689;SDS011;32423;45.398;10.874;2023-05-07T08:36:13;18.08;;;13.05;;
46689;SDS011;32423;45.398;10.874;2023-05-07T08:39:08;18.58;;;12.98;;
46689;SDS011;32423;45.398;10.874;2023-05-07T08:42:00;14.75;;;13.07;;
46689;SDS011;32423;45.398;10.874;2023-05-07T08:44:51;19.60;;;13.40;;
46689;SDS011;32423;45.398;10.874;2023-05-07T08:47:49;22.50;;;12.30;;
46689;SDS011;32423;45.398;10.874;2023-05-07T08:50:47;15.40;;;12.55;;
46689;SDS011;32423;45.398;10.874;2023-05-07T08:53:44;17.50;;;13.65;;
46689;SDS011;32423;45.398;10.874;2023-05-07T08:56:39;14.43;;;12.25;;
46689;SDS011;32423;45.398;10.874;2023-05-07T08:59:31;17.92;;;12.52;;
46689;SDS011;32423;45.398;10.874;2023-05-07T09:02:26;16.83;;;11.30;;
46689;SDS011;32423;45.398;10.874;2023-05-07T09:05:21;14.68;;;12.52;;
46689;SDS011;32423;45.398;10.874;2023-05-07T09:08:15;17.98;;;13.27;;
46689;SDS011;32423;45.398;10.874;2023-05-07T09:11:10;18.30;;;12.90;;
46689;SDS011;32423;45.398;10.874;2023-05-07T09:14:04;27.60;;;15.20;;
46689;SDS011;32423;45.398;10.874;2023-05-07T09:17:00;18.42;;;13.02;;
46689;SDS011;32423;45.398;10.874;2023-05-07T09:19:52;31.85;;;13.50;;
46689;SDS011;32423;45.398;10.874;2023-05-07T09:22:47;15.45;;;11.90;;
46689;SDS011;32423;45.398;10.874;2023-05-07T09:25:43;16.58;;;13.20;;
46689;SDS011;32423;45.398;10.874;2023-05-07T09:28:43;16.42;;;12.13;;
46689;SDS011;32423;45.398;10.874;2023-05-07T09:31:36;19.00;;;12.98;;
46689;SDS011;32423;45.398;10.874;2023-05-07T09:34:32;17.80;;;14.57;;
46689;SDS011;32423;45.398;10.874;2023-05-07T09:37:25;19.50;;;14.32;;
46689;SDS011;32423;45.398;10.874;2023-05-07T09:40:21;48.72;;;15.82;;
46689;SDS011;32423;45.398;10.874;2023-05-07T09:43:18;18.20;;;13.70;;
46689;SDS011;32423;45.398;10.874;2023-05-07T09:46:15;18.63;;;13.82;;
46689;SDS011;32423;45.398;10.874;2023-05-07T09:49:13;17.58;;;13.88;;
46689;SDS011;32423;45.398;10.874;2023-05-07T09:52:12;19.55;;;13.90;;
46689;SDS011;32423;45.398;10.874;2023-05-07T09:55:07;27.33;;;15.27;;
46689;SDS011;32423;45.398;10.874;2023-05-07T09:58:02;15.82;;;12.13;;
46689;SDS011;32423;45.398;10.874;2023-05-07T10:00:58;17.05;;;13.95;;
46689;SDS011;32423;45.398;10.874;2023-05-07T10:03:52;17.48;;;11.60;;
46689;SDS011;32423;45.398;10.874;2023-05-07T10:06:47;13.55;;;11.00;;
46689;SDS011;32423;45.398;10.874;2023-05-07T10:09:41;13.68;;;11.40;;
46689;SDS011;32423;45.398;10.874;2023-05-07T10:12:43;30.30;;;11.30;;
46689;SDS011;32423;45.398;10.874;2023-05-07T10:15:47;18.45;;;10.77;;
46689;SDS011;32423;45.398;10.874;2023-05-07T10:18:42;21.23;;;12.32;;
46689;SDS011;32423;45.398;10.874;2023-05-07T10:21:54;16.45;;;12.93;;
46689;SDS011;32423;45.398;10.874;2023-05-07T10:24:51;14.15;;;11.23;;
46689;SDS011;32423;45.398;10.874;2023-05-07T10:27:48;24.95;;;11.77;;
46689;SDS011;32423;45.398;10.874;2023-05-07T10:34:20;15.02;;;11.30;;
46689;SDS011;32423;45.398;10.874;2023-05-07T10:37:15;13.90;;;10.35;;
46689;SDS011;32423;45.398;10.874;2023-05-07T10:40:05;14.93;;;10.95;;
46689;SDS011;32423;45.398;10.874;2023-05-07T10:42:59;22.77;;;10.38;;
46689;SDS011;32423;45.398;10.874;2023-05-07T10:49:20;11.77;;;8.85;;
46689;SDS011;32423;45.398;10.874;2023-05-07T10:52:16;11.20;;;8.90;;
46689;SDS011;32423;45.398;10.874;2023-05-07T10:55:34;10.75;;;9.32;;
46689;SDS011;32423;45.398;10.874;2023-05-07T10:58:48;14.02;;;9.27;;
46689;SDS011;32423;45.398;10.874;2023-05-07T11:01:53;10.65;;;8.57;;
46689;SDS011;32423;45.398;10.874;2023-05-07T11:08:29;13.38;;;10.02;;
46689;SDS011;32423;45.398;10.874;2023-05-07T11:11:59;13.32;;;9.65;;
46689;SDS011;32423;45.398;10.874;2023-05-07T11:15:02;45.17;;;11.15;;
46689;SDS011;32423;45.398;10.874;2023-05-07T11:17:58;11.27;;;9.73;;
46689;SDS011;32423;45.398;10.874;2023-05-07T11:20:57;11.90;;;9.65;;
46689;SDS011;32423;45.398;10.874;2023-05-07T11:23:57;13.90;;;8.07;;
46689;SDS011;32423;45.398;10.874;2023-05-07T11:27:01;12.48;;;8.40;;
46689;SDS011;32423;45.398;10.874;2023-05-07T11:29:55;9.73;;;7.88;;
46689;SDS011;32423;45.398;10.874;2023-05-07T11:32:50;16.52;;;6.65;;
46689;SDS011;32423;45.398;10.874;2023-05-07T11:35:40;10.88;;;8.40;;
46689;SDS011;32423;45.398;10.874;2023-05-07T11:38:39;10.55;;;7.65;;
46689;SDS011;32423;45.398;10.874;2023-05-07T11:41:37;9.27;;;7.32;;
46689;SDS011;32423;45.398;10.874;2023-05-07T11:44:41;16.52;;;7.43;;
46689;SDS011;32423;45.398;10.874;2023-05-07T11:47:41;10.32;;;6.25;;
46689;SDS011;32423;45.398;10.874;2023-05-07T11:50:35;7.88;;;7.07;;
46689;SDS011;32423;45.398;10.874;2023-05-07T11:53:39;9.80;;;7.43;;
46689;SDS011;32423;45.398;10.874;2023-05-07T11:56:35;9.85;;;6.20;;
46689;SDS011;32423;45.398;10.874;2023-05-07T11:59:30;6.05;;;5.45;;
46689;SDS011;32423;45.398;10.874;2023-05-07T12:02:22;9.75;;;6.57;;
46689;SDS011;32423;45.398;10.874;2023-05-07T12:05:14;9.93;;;6.60;;
46689;SDS011;32423;45.398;10.874;2023-05-07T12:08:06;7.75;;;6.55;;
46689;SDS011;32423;45.398;10.874;2023-05-07T12:11:03;7.78;;;6.97;;
46689;SDS011;32423;45.398;10.874;2023-05-07T12:14:00;7.00;;;6.18;;
46689;SDS011;32423;45.398;10.874;2023-05-07T12:16:55;11.00;;;5.25;;
46689;SDS011;32423;45.398;10.874;2023-05-07T12:19:48;9.75;;;5.30;;
46689;SDS011;32423;45.398;10.874;2023-05-07T12:22:40;8.48;;;6.32;;
46689;SDS011;32423;45.398;10.874;2023-05-07T12:25:38;8.38;;;5.50;;
46689;SDS011;32423;45.398;10.874;2023-05-07T12:28:31;14.77;;;6.10;;
46689;SDS011;32423;45.398;10.874;2023-05-07T12:31:33;7.10;;;5.60;;
46689;SDS011;32423;45.398;10.874;2023-05-07T12:34:27;7.70;;;5.97;;
46689;SDS011;32423;45.398;10.874;2023-05-07T12:37:26;6.90;;;5.90;;
46689;SDS011;32423;45.398;10.874;2023-05-07T12:40:21;9.68;;;6.15;;
46689;SDS011;32423;45.398;10.874;2023-05-07T12:43:14;9.38;;;6.25;;
46689;SDS011;32423;45.398;10.874;2023-05-07T12:46:09;7.47;;;5.45;;
46689;SDS011;32423;45.398;10.874;2023-05-07T12:49:03;10.38;;;6.18;;
46689;SDS011;32423;45.398;10.874;2023-05-07T12:51:58;13.32;;;6.10;;
46689;SDS011;32423;45.398;10.874;2023-05-07T12:54:53;7.82;;;6.07;;
46689;SDS011;32423;45.398;10.874;2023-05-07T12:57:48;7.20;;;6.50;;
46689;SDS011;32423;45.398;10.874;2023-05-07T13:00:42;9.13;;;6.28;;
46689;SDS011;32423;45.398;10.874;2023-05-07T13:03:36;8.50;;;5.32;;
46689;SDS011;32423;45.398;10.874;2023-05-07T13:06:29;19.63;;;5.47;;
46689;SDS011;32423;45.398;10.874;2023-05-07T13:09:24;9.43;;;4.28;;
46689;SDS011;32423;45.398;10.874;2023-05-07T13:12:18;8.80;;;5.72;;
46689;SDS011;32423;45.398;10.874;2023-05-07T13:15:10;5.95;;;5.03;;
46689;SDS011;32423;45.398;10.874;2023-05-07T13:18:05;7.07;;;6.38;;
46689;SDS011;32423;45.398;10.874;2023-05-07T13:21:00;8.90;;;6.93;;
46689;SDS011;32423;45.398;10.874;2023-05-07T13:23:55;10.40;;;7.30;;
46689;SDS011;32423;45.398;10.874;2023-05-07T13:26:47;7.53;;;6.70;;
46689;SDS011;32423;45.398;10.874;2023-05-07T13:29:40;6.85;;;6.00;;
46689;SDS011;32423;45.398;10.874;2023-05-07T13:32:34;8.00;;;5.57;;
46689;SDS011;32423;45.398;10.874;2023-05-07T13:38:18;7.68;;;5.80;;
46689;SDS011;32423;45.398;10.874;2023-05-07T13:41:07;7.38;;;6.45;;
46689;SDS011;32423;45.398;10.874;2023-05-07T13:44:02;12.75;;;5.10;;
46689;SDS011;32423;45.398;10.874;2023-05-07T13:49:48;4.75;;;4.00;;
46689;SDS011;32423;45.398;10.874;2023-05-07T13:52:40;6.68;;;5.40;;
46689;SDS011;32423;45.398;10.874;2023-05-07T13:55:35;9.98;;;5.47;;
46689;SDS011;32423;45.398;10.874;2023-05-07T13:58:29;6.93;;;5.32;;
46689;SDS011;32423;45.398;10.874;2023-05-07T14:01:24;7.05;;;5.72;;
46689;SDS011;32423;45.398;10.874;2023-05-07T14:04:19;7.80;;;4.63;;
46689;SDS011;32423;45.398;10.874;2023-05-07T14:07:11;10.57;;;5.50;;
46689;SDS011;32423;45.398;10.874;2023-05-07T14:10:03;15.80;;;14.57;;
46689;SDS011;32423;45.398;10.874;2023-05-07T14:15:47;708.58;;;175.48;;
46689;SDS011;32423;45.398;10.874;2023-05-07T14:18:41;1110.72;;;274.20;;
46689;SDS011;32423;45.398;10.874;2023-05-07T14:24:28;1999.90;;;316.42;;
46689;SDS011;32423;45.398;10.874;2023-05-07T14:27:20;1276.78;;;176.38;;
46689;SDS011;32423;45.398;10.874;2023-05-07T14:33:06;1331.88;;;152.70;;
46689;SDS011;32423;45.398;10.874;2023-05-07T14:35:59;781.38;;;105.28;;
46689;SDS011;32423;45.398;10.874;2023-05-07T14:38:54;1173.65;;;164.15;;
46689;SDS011;32423;45.398;10.874;2023-05-07T14:41:49;1593.10;;;326.85;;
46689;SDS011;32423;45.398;10.874;2023-05-07T14:47:34;1933.97;;;176.00;;
46689;SDS011;32423;45.398;10.874;2023-05-07T14:50:29;529.53;;;68.38;;
46689;SDS011;32423;45.398;10.874;2023-05-07T14:53:22;257.20;;;30.98;;
46689;SDS011;32423;45.398;10.874;2023-05-07T14:56:11;1028.45;;;155.82;;
46689;SDS011;32423;45.398;10.874;2023-05-07T14:59:03;1999.90;;;360.73;;
46689;SDS011;32423;45.398;10.874;2023-05-07T15:01:58;541.53;;;96.85;;
46689;SDS011;32423;45.398;10.874;2023-05-07T15:04:50;390.80;;;47.85;;
46689;SDS011;32423;45.398;10.874;2023-05-07T15:07:42;172.52;;;31.33;;
46689;SDS011;32423;45.398;10.874;2023-05-07T15:13:27;186.80;;;25.45;;
46689;SDS011;32423;45.398;10.874;2023-05-07T15:16:19;123.18;;;16.10;;
46689;SDS011;32423;45.398;10.874;2023-05-07T15:19:09;141.45;;;22.23;;
46689;SDS011;32423;45.398;10.874;2023-05-07T15:22:01;62.42;;;11.55;;
46689;SDS011;32423;45.398;10.874;2023-05-07T15:24:53;1553.93;;;756.53;;
46689;SDS011;32423;45.398;10.874;2023-05-07T15:30:37;916.42;;;144.02;;
46689;SDS011;32423;45.398;10.874;2023-05-07T15:33:29;79.90;;;10.50;;
46689;SDS011;32423;45.398;10.874;2023-05-07T15:36:24;229.60;;;38.65;;
46689;SDS011;32423;45.398;10.874;2023-05-07T15:39:18;133.00;;;12.82;;
46689;SDS011;32423;45.398;10.874;2023-05-07T15:45:05;1999.90;;;999.90;;
46689;SDS011;32423;45.398;10.874;2023-05-07T15:47:58;1999.90;;;999.90;;
46689;SDS011;32423;45.398;10.874;2023-05-07T15:50:52;1999.90;;;999.90;;
46689;SDS011;32423;45.398;10.874;2023-05-07T15:53:47;1999.90;;;999.90;;
46689;SDS011;32423;45.398;10.874;2023-05-07T15:56:41;1999.90;;;999.90;;
46689;SDS011;32423;45.398;10.874;2023-05-07T15:59:34;1728.30;;;291.25;;
46689;SDS011;32423;45.398;10.874;2023-05-07T16:02:28;1999.90;;;530.05;;
46689;SDS011;32423;45.398;10.874;2023-05-07T16:08:15;1733.00;;;492.80;;
46689;SDS011;32423;45.398;10.874;2023-05-07T16:11:07;1562.95;;;472.15;;
46689;SDS011;32423;45.398;10.874;2023-05-07T16:14:02;1999.90;;;490.52;;
46689;SDS011;32423;45.398;10.874;2023-05-07T16:16:54;1996.63;;;514.42;;
46689;SDS011;32423;45.398;10.874;2023-05-07T16:19:45;1999.90;;;631.17;;
46689;SDS011;32423;45.398;10.874;2023-05-07T16:22:35;1813.93;;;415.85;;
46689;SDS011;32423;45.398;10.874;2023-05-07T16:25:27;1832.22;;;300.23;;
46689;SDS011;32423;45.398;10.874;2023-05-07T16:28:21;1999.90;;;498.75;;
46689;SDS011;32423;45.398;10.874;2023-05-07T16:31:11;710.17;;;178.68;;
46689;SDS011;32423;45.398;10.874;2023-05-07T16:34:06;1782.72;;;408.38;;
46689;SDS011;32423;45.398;10.874;2023-05-07T16:36:57;963.10;;;273.67;;
46689;SDS011;32423;45.398;10.874;2023-05-07T16:39:53;1168.05;;;280.15;;
46689;SDS011;32423;45.398;10.874;2023-05-07T16:42:48;1834.65;;;466.92;;
46689;SDS011;32423;45.398;10.874;2023-05-07T16:45:42;964.95;;;316.05;;
46689;SDS011;32423;45.398;10.874;2023-05-07T16:51:27;1017.67;;;301.35;;
46689;SDS011;32423;45.398;10.874;2023-05-07T16:54:19;896.53;;;260.50;;
46689;SDS011;32423;45.398;10.874;2023-05-07T16:57:11;649.42;;;184.48;;
46689;SDS011;32423;45.398;10.874;2023-05-07T17:00:05;659.35;;;156.88;;
46689;SDS011;32423;45.398;10.874;2023-05-07T17:03:01;374.80;;;103.95;;
46689;SDS011;32423;45.398;10.874;2023-05-07T17:05:50;330.42;;;86.50;;
46689;SDS011;32423;45.398;10.874;2023-05-07T17:08:45;233.95;;;71.15;;
46689;SDS011;32423;45.398;10.874;2023-05-07T17:11:37;296.83;;;69.22;;
46689;SDS011;32423;45.398;10.874;2023-05-07T17:14:29;274.98;;;72.50;;
46689;SDS011;32423;45.398;10.874;2023-05-07T17:17:23;241.60;;;51.47;;
46689;SDS011;32423;45.398;10.874;2023-05-07T17:20:15;277.95;;;73.10;;
46689;SDS011;32423;45.398;10.874;2023-05-07T17:23:02;305.85;;;86.55;;
46689;SDS011;32423;45.398;10.874;2023-05-07T17:25:57;310.58;;;82.50;;
46689;SDS011;32423;45.398;10.874;2023-05-07T17:28:49;175.75;;;47.83;;
46689;SDS011;32423;45.398;10.874;2023-05-07T17:34:31;336.13;;;60.88;;
46689;SDS011;32423;45.398;10.874;2023-05-07T17:37:23;202.45;;;43.17;;
46689;SDS011;32423;45.398;10.874;2023-05-07T17:40:18;157.77;;;27.90;;
46689;SDS011;32423;45.398;10.874;2023-05-07T17:43:12;126.30;;;28.60;;
46689;SDS011;32423;45.398;10.874;2023-05-07T17:46:07;86.93;;;22.58;;
46689;SDS011;32423;45.398;10.874;2023-05-07T17:48:59;101.72;;;32.95;;
46689;SDS011;32423;45.398;10.874;2023-05-07T17:51:49;66.95;;;18.45;;